createdAt,value
2023-04-09T00:02:20.240Z,3.50
2023-04-09T00:05:45.152Z,2.57
2023-04-09T00:09:09.403Z,3.30
2023-04-09T00:12:35.031Z,2.80
2023-04-09T00:15:59.141Z,2.70
2023-04-09T00:19:23.400Z,3.20
2023-04-09T00:22:48.493Z,3.03
2023-04-09T00:26:12.417Z,2.90
2023-04-09T00:29:37.763Z,2.97
2023-04-09T00:33:01.706Z,2.50
2023-04-09T00:36:27.096Z,2.97
2023-04-09T00:39:51.254Z,2.30
2023-04-09T00:43:15.138Z,2.90
2023-04-09T00:46:40.592Z,5.30
2023-04-09T00:50:05.373Z,3.70
2023-04-09T00:53:29.434Z,2.63
2023-04-09T00:56:53.781Z,2.87
2023-04-09T01:00:17.812Z,3.33
2023-04-09T01:03:43.771Z,3.93
2023-04-09T01:07:17.636Z,2.77
2023-04-09T01:10:50.770Z,3.27
2023-04-09T01:14:21.876Z,3.27
2023-04-09T01:17:51.563Z,2.67
2023-04-09T01:21:24.466Z,3.27
2023-04-09T01:25:04.824Z,3.37
2023-04-09T01:28:44.931Z,2.87
2023-04-09T01:32:10.238Z,5.70
2023-04-09T01:35:34.812Z,3.23
2023-04-09T01:38:59.034Z,4.33
2023-04-09T01:42:23.177Z,3.63
2023-04-09T01:45:49.684Z,2.90
2023-04-09T01:49:13.950Z,3.23
2023-04-09T01:52:38.460Z,3.00
2023-04-09T01:56:03.591Z,4.70
2023-04-09T01:59:27.457Z,4.00
2023-04-09T02:03:03.553Z,3.30
2023-04-09T02:06:37.849Z,4.10
2023-04-09T02:10:02.722Z,3.63
2023-04-09T02:13:28.550Z,3.87
2023-04-09T02:16:52.651Z,4.00
2023-04-09T02:20:19.909Z,3.60
2023-04-09T02:23:43.350Z,3.03
2023-04-09T02:27:07.619Z,3.30
2023-04-09T02:30:30.991Z,4.33
2023-04-09T02:33:55.155Z,3.63
2023-04-09T02:37:20.014Z,3.30
2023-04-09T02:40:44.491Z,3.50
2023-04-09T02:44:08.493Z,7.43
2023-04-09T02:47:31.988Z,3.50
2023-04-09T02:50:56.356Z,3.17
2023-04-09T02:54:21.901Z,3.50
2023-04-09T02:57:45.714Z,3.37
2023-04-09T03:01:09.194Z,2.97
2023-04-09T03:04:33.337Z,3.47
2023-04-09T03:07:57.332Z,4.13
2023-04-09T03:11:22.509Z,4.40
2023-04-09T03:14:46.437Z,3.27
2023-04-09T03:18:10.278Z,3.33
2023-04-09T03:21:34.180Z,4.20
2023-04-09T03:24:58.213Z,2.90
2023-04-09T03:28:23.254Z,3.23
2023-04-09T03:31:50.170Z,3.57
2023-04-09T03:35:13.786Z,2.77
2023-04-09T03:38:39.371Z,3.80
2023-04-09T03:42:09.070Z,3.57
2023-04-09T03:45:42.290Z,3.93
2023-04-09T03:49:16.895Z,3.27
2023-04-09T03:52:41.815Z,3.97
2023-04-09T03:56:06.985Z,3.37
2023-04-09T03:59:31.443Z,3.07
2023-04-09T04:02:56.844Z,3.70
2023-04-09T04:06:40.755Z,3.43
2023-04-09T04:10:22.684Z,3.43
2023-04-09T04:13:46.574Z,3.57
2023-04-09T04:17:11.575Z,3.57
2023-04-09T04:20:38.080Z,6.13
2023-04-09T04:24:07.053Z,3.90
2023-04-09T04:27:30.990Z,3.70
2023-04-09T04:30:55.136Z,3.70
2023-04-09T04:34:19.275Z,3.80
2023-04-09T04:37:52.780Z,3.60
2023-04-09T04:41:17.985Z,4.30
2023-04-09T04:44:49.480Z,4.33
2023-04-09T04:48:32.801Z,3.43
2023-04-09T04:51:56.654Z,3.93
2023-04-09T04:55:22.173Z,4.80
2023-04-09T04:58:47.609Z,4.10
2023-04-09T05:02:14.566Z,3.70
2023-04-09T05:05:58.696Z,4.53
2023-04-09T05:09:26.499Z,4.47
2023-04-09T05:12:59.005Z,3.67
2023-04-09T05:16:28.760Z,4.17
2023-04-09T05:19:59.720Z,3.77
2023-04-09T05:23:31.724Z,5.17
2023-04-09T05:26:55.822Z,2.97
2023-04-09T05:30:22.041Z,3.83
2023-04-09T05:33:46.290Z,3.60
2023-04-09T05:37:15.893Z,3.37
2023-04-09T05:40:45.843Z,4.07
2023-04-09T05:44:10.667Z,3.80
2023-04-09T05:47:37.244Z,3.43
2023-04-09T05:51:10.197Z,4.03
2023-04-09T05:54:36.430Z,3.97
2023-04-09T05:58:01.965Z,3.40
2023-04-09T06:01:26.183Z,3.20
2023-04-09T06:04:51.368Z,2.90
2023-04-09T06:08:15.338Z,3.50
2023-04-09T06:11:39.122Z,4.47
2023-04-09T06:15:03.613Z,4.03
2023-04-09T06:18:27.560Z,4.67
2023-04-09T06:21:52.408Z,4.00
2023-04-09T06:25:15.884Z,4.53
2023-04-09T06:28:39.732Z,4.57
2023-04-09T06:32:03.204Z,3.73
2023-04-09T06:35:26.797Z,4.03
2023-04-09T06:38:51.759Z,3.70
2023-04-09T06:42:15.693Z,3.40
2023-04-09T06:45:49.055Z,3.43
2023-04-09T06:49:12.888Z,3.30
2023-04-09T06:52:36.396Z,3.57
2023-04-09T06:56:01.241Z,3.30
2023-04-09T06:59:24.852Z,3.33
2023-04-09T07:02:48.475Z,3.47
2023-04-09T07:06:12.332Z,3.43
2023-04-09T07:09:35.912Z,2.90
2023-04-09T07:13:01.039Z,3.57
2023-04-09T07:16:24.940Z,3.00
2023-04-09T07:19:48.967Z,3.20
2023-04-09T07:23:12.794Z,3.73
2023-04-09T07:26:36.597Z,2.77
2023-04-09T07:30:01.700Z,3.23
2023-04-09T07:33:25.409Z,3.13
2023-04-09T07:36:49.214Z,3.43
2023-04-09T07:40:13.408Z,2.93
2023-04-09T07:43:37.013Z,2.90
2023-04-09T07:47:02.228Z,2.90
2023-04-09T07:50:26.173Z,2.80
2023-04-09T07:53:50.023Z,2.63
2023-04-09T07:57:13.476Z,2.97
2023-04-09T08:00:37.269Z,4.10
2023-04-09T08:04:02.509Z,3.23
2023-04-09T08:07:26.545Z,2.40
2023-04-09T08:10:49.971Z,2.47
2023-04-09T08:14:13.827Z,2.57
2023-04-09T08:17:38.009Z,2.60
2023-04-09T08:21:06.412Z,3.17
2023-04-09T08:24:30.026Z,2.43
2023-04-09T08:27:53.823Z,2.37
2023-04-09T08:31:17.260Z,3.07
2023-04-09T08:34:40.694Z,2.50
2023-04-09T08:38:05.945Z,2.53
2023-04-09T08:41:30.561Z,2.90
2023-04-09T08:44:54.467Z,2.40
2023-04-09T08:48:19.626Z,2.80
2023-04-09T08:51:48.209Z,2.87
2023-04-09T08:55:13.611Z,3.33
2023-04-09T08:58:37.642Z,3.00
2023-04-09T09:02:12.072Z,2.80
2023-04-09T09:05:41.722Z,3.07
2023-04-09T09:09:08.468Z,3.20
2023-04-09T09:12:39.515Z,3.00
2023-04-09T09:16:16.035Z,3.10
2023-04-09T09:19:39.535Z,3.37
2023-04-09T09:23:03.454Z,2.83
2023-04-09T09:26:30.055Z,2.57
2023-04-09T09:29:54.908Z,3.00
2023-04-09T09:33:18.429Z,3.27
2023-04-09T09:36:42.294Z,4.03
2023-04-09T09:40:07.770Z,3.40
2023-04-09T09:43:42.737Z,2.97
2023-04-09T09:47:09.155Z,3.30
2023-04-09T09:50:36.246Z,3.17
2023-04-09T09:54:00.948Z,3.47
2023-04-09T09:57:31.232Z,3.23
2023-04-09T10:00:57.421Z,3.73
2023-04-09T10:04:24.713Z,2.50
2023-04-09T10:07:49.751Z,2.77
2023-04-09T10:11:13.923Z,2.90
2023-04-09T10:14:39.155Z,2.50
2023-04-09T10:18:03.309Z,3.30
2023-04-09T10:21:39.882Z,2.60
2023-04-09T10:25:06.542Z,2.83
2023-04-09T10:28:30.033Z,2.30
2023-04-09T10:31:55.963Z,2.00
2023-04-09T10:35:27.132Z,2.40
2023-04-09T10:38:52.378Z,1.90
2023-04-09T10:42:20.517Z,1.80
2023-04-09T10:45:44.035Z,2.10
2023-04-09T10:49:13.629Z,2.47
2023-04-09T10:52:41.246Z,1.97
2023-04-09T10:56:17.404Z,2.20
2023-04-09T10:59:43.151Z,2.40
2023-04-09T11:03:25.927Z,2.10
2023-04-09T11:06:50.805Z,2.37
2023-04-09T11:10:14.685Z,2.40
2023-04-09T11:13:43.142Z,1.80
2023-04-09T11:17:07.007Z,2.60
2023-04-09T11:20:31.699Z,2.23
2023-04-09T11:23:55.685Z,2.70
2023-04-09T11:27:19.874Z,2.60
2023-04-09T11:30:46.811Z,2.20
2023-04-09T11:34:12.336Z,2.43
2023-04-09T11:37:38.042Z,2.80
2023-04-09T11:41:03.428Z,2.63
2023-04-09T11:44:27.197Z,2.57
2023-04-09T11:47:53.526Z,2.40
2023-04-09T11:51:17.495Z,2.00
2023-04-09T11:54:41.252Z,2.00
2023-04-09T11:58:04.799Z,2.37
2023-04-09T12:01:33.463Z,2.00
2023-04-09T12:05:04.487Z,1.97
2023-04-09T12:08:29.142Z,2.30
2023-04-09T12:11:53.240Z,2.73
2023-04-09T12:15:31.945Z,2.40
2023-04-09T12:18:56.572Z,2.50
2023-04-09T12:22:21.931Z,2.00
2023-04-09T12:25:47.667Z,2.10
2023-04-09T12:29:11.582Z,2.37
2023-04-09T12:32:35.509Z,2.17
2023-04-09T12:35:59.490Z,2.10
2023-04-09T12:39:24.280Z,2.20
2023-04-09T12:42:48.501Z,2.20
2023-04-09T12:46:13.034Z,2.10
2023-04-09T12:49:36.522Z,2.03
2023-04-09T12:53:00.298Z,2.50
2023-04-09T12:56:25.485Z,2.43
2023-04-09T12:59:49.281Z,2.23
2023-04-09T13:03:13.228Z,2.63
2023-04-09T13:06:37.197Z,2.00
2023-04-09T13:10:01.397Z,1.97
2023-04-09T13:13:26.661Z,1.60
2023-04-09T13:16:52.491Z,2.27
2023-04-09T13:20:17.177Z,2.03
2023-04-09T13:23:41.087Z,2.60
2023-04-09T13:27:05.507Z,2.30
2023-04-09T13:30:30.462Z,2.90
2023-04-09T13:33:54.323Z,2.20
2023-04-09T13:37:18.245Z,2.53
2023-04-09T13:40:42.072Z,2.57
2023-04-09T13:44:05.905Z,1.77
2023-04-09T13:47:30.851Z,2.00
2023-04-09T13:50:54.721Z,2.07
2023-04-09T13:54:18.559Z,2.03
2023-04-09T13:57:42.424Z,1.90
2023-04-09T14:01:07.944Z,1.83
2023-04-09T14:04:33.362Z,1.97
2023-04-09T14:07:57.237Z,2.00
2023-04-09T14:11:21.188Z,2.20
2023-04-09T14:14:45.022Z,2.13
2023-04-09T14:18:09.252Z,2.40
2023-04-09T14:21:35.293Z,2.53
2023-04-09T14:24:59.417Z,2.60
2023-04-09T14:28:23.316Z,3.20
2023-04-09T14:31:47.271Z,2.17
2023-04-09T14:35:11.557Z,2.23
2023-04-09T14:38:38.372Z,2.27
2023-04-09T14:42:02.183Z,2.40
2023-04-09T14:45:25.985Z,2.30
2023-04-09T14:48:49.778Z,2.37
2023-04-09T14:52:13.578Z,2.40
2023-04-09T14:55:39.282Z,2.63
2023-04-09T14:59:03.160Z,2.20
2023-04-09T15:02:26.872Z,2.23
2023-04-09T15:05:50.788Z,2.30
2023-04-09T15:09:14.679Z,2.50
2023-04-09T15:12:39.524Z,2.27
2023-04-09T15:16:03.364Z,2.13
2023-04-09T15:19:27.268Z,2.30
2023-04-09T15:22:51.217Z,1.77
2023-04-09T15:26:15.013Z,2.10
2023-04-09T15:29:39.788Z,2.13
2023-04-09T15:33:03.703Z,2.40
2023-04-09T15:36:29.060Z,2.00
2023-04-09T15:39:52.623Z,2.33
2023-04-09T15:43:17.268Z,2.60
2023-04-09T15:46:42.398Z,2.80
2023-04-09T15:50:07.351Z,2.40
2023-04-09T15:53:31.200Z,2.30
2023-04-09T15:56:54.887Z,2.43
2023-04-09T16:00:18.737Z,2.63
2023-04-09T16:03:43.638Z,2.57
2023-04-09T16:07:07.742Z,2.60
2023-04-09T16:10:32.162Z,2.57
2023-04-09T16:13:56.162Z,2.33
2023-04-09T16:17:19.936Z,2.87
2023-04-09T16:20:44.765Z,2.40
2023-04-09T16:24:08.186Z,2.57
2023-04-09T16:27:31.635Z,2.50
2023-04-09T16:30:55.632Z,2.60
2023-04-09T16:34:19.507Z,1.83
2023-04-09T16:37:44.348Z,1.80
2023-04-09T16:41:08.256Z,2.20
2023-04-09T16:44:32.018Z,2.20
2023-04-09T16:47:56.249Z,1.93
2023-04-09T16:51:20.520Z,1.93
2023-04-09T16:54:45.407Z,2.53
2023-04-09T16:58:08.854Z,2.30
2023-04-09T17:01:32.721Z,2.10
2023-04-09T17:04:56.640Z,1.70
2023-04-09T17:08:24.199Z,2.10
2023-04-09T17:11:49.037Z,1.87
2023-04-09T17:15:12.998Z,2.10
2023-04-09T17:18:37.428Z,2.20
2023-04-09T17:22:01.498Z,1.70
2023-04-09T17:25:25.739Z,2.10
2023-04-09T17:28:51.158Z,2.13
2023-04-09T17:32:14.718Z,2.40
2023-04-09T17:35:38.591Z,2.03
2023-04-09T17:39:02.409Z,2.10
2023-04-09T17:42:26.321Z,2.13
2023-04-09T17:45:51.505Z,2.33
2023-04-09T17:49:15.549Z,2.40
2023-04-09T17:52:39.844Z,2.90
2023-04-09T17:56:04.133Z,2.30
2023-04-09T17:59:28.008Z,2.50
2023-04-09T18:02:54.655Z,1.93
2023-04-09T18:06:18.799Z,2.47
2023-04-09T18:09:42.521Z,2.53
2023-04-09T18:13:06.364Z,2.90
2023-04-09T18:16:30.267Z,2.33
2023-04-09T18:19:58.266Z,2.17
2023-04-09T18:23:22.259Z,2.93
2023-04-09T18:26:46.086Z,2.23
2023-04-09T18:30:10.583Z,2.60
2023-04-09T18:33:34.144Z,2.20
2023-04-09T18:36:59.275Z,2.50
2023-04-09T18:40:23.088Z,2.37
2023-04-09T18:43:48.348Z,1.93
2023-04-09T18:47:12.978Z,2.70
2023-04-09T18:50:36.939Z,2.23
2023-04-09T18:54:02.054Z,3.47
2023-04-09T18:57:25.980Z,2.10
2023-04-09T19:00:51.440Z,2.43
2023-04-09T19:04:14.961Z,2.33
2023-04-09T19:07:39.464Z,2.47
2023-04-09T19:11:04.456Z,2.40
2023-04-09T19:14:28.567Z,2.50
2023-04-09T19:17:52.236Z,2.30
2023-04-09T19:21:17.833Z,2.27
2023-04-09T19:24:44.420Z,3.33
2023-04-09T19:28:09.479Z,2.20
2023-04-09T19:31:33.428Z,2.40
2023-04-09T19:34:57.325Z,1.90
2023-04-09T19:38:21.624Z,2.23
2023-04-09T19:41:45.454Z,2.20
2023-04-09T19:45:11.840Z,2.30
2023-04-09T19:48:35.664Z,2.40
2023-04-09T19:51:59.126Z,2.37
2023-04-09T19:55:23.249Z,1.87
2023-04-09T19:58:47.131Z,2.00
2023-04-09T20:02:12.000Z,2.53
2023-04-09T20:05:35.794Z,2.70
2023-04-09T20:09:01.104Z,2.40
2023-04-09T20:12:29.274Z,2.33
2023-04-09T20:15:53.036Z,3.40
2023-04-09T20:19:19.697Z,2.70
2023-04-09T20:22:47.366Z,2.50
2023-04-09T20:26:13.258Z,2.50
2023-04-09T20:29:36.850Z,2.37
2023-04-09T20:33:01.273Z,2.63
2023-04-09T20:36:26.242Z,3.03
2023-04-09T20:39:50.012Z,3.30
2023-04-09T20:43:13.857Z,2.50
2023-04-09T20:46:37.380Z,2.67
2023-04-09T20:50:01.396Z,2.37
2023-04-09T20:53:26.366Z,3.00
2023-04-09T20:56:49.943Z,2.83
2023-04-09T21:00:14.641Z,2.77
2023-04-09T21:03:39.219Z,3.90
2023-04-09T21:07:03.155Z,3.40
2023-04-09T21:10:27.959Z,2.50
2023-04-09T21:13:54.940Z,2.80
2023-04-09T21:17:19.254Z,2.53
2023-04-09T21:20:44.917Z,3.40
2023-04-09T21:24:08.776Z,3.13
2023-04-09T21:27:33.546Z,3.40
2023-04-09T21:30:57.683Z,2.97
2023-04-09T21:34:21.640Z,2.67
2023-04-09T21:37:45.012Z,3.30
2023-04-09T21:41:09.152Z,3.10
2023-04-09T21:44:35.360Z,4.00
2023-04-09T21:47:59.091Z,2.77
2023-04-09T21:51:22.844Z,3.33
2023-04-09T21:54:46.668Z,3.53
2023-04-09T21:58:11.841Z,3.37
2023-04-09T22:01:36.786Z,2.77
2023-04-09T22:05:00.941Z,2.70
2023-04-09T22:08:25.408Z,2.87
2023-04-09T22:11:49.203Z,3.20
2023-04-09T22:15:13.243Z,3.10
2023-04-09T22:18:38.368Z,3.10
2023-04-09T22:22:02.129Z,3.23
2023-04-09T22:25:26.003Z,3.60
2023-04-09T22:28:50.208Z,2.60
2023-04-09T22:32:14.498Z,3.33
2023-04-09T22:35:39.210Z,3.63
2023-04-09T22:39:02.592Z,3.33
2023-04-09T22:42:26.374Z,3.57
2023-04-09T22:45:54.199Z,2.87
2023-04-09T22:49:18.340Z,3.97
2023-04-09T22:52:43.037Z,2.80
2023-04-09T22:56:08.230Z,3.37
2023-04-09T22:59:40.401Z,4.23
2023-04-09T23:03:04.891Z,4.20
2023-04-09T23:06:28.828Z,5.67
2023-04-09T23:09:54.880Z,4.37
2023-04-09T23:13:18.565Z,3.93
2023-04-09T23:16:41.930Z,4.40
2023-04-09T23:20:07.936Z,3.47
2023-04-09T23:23:31.379Z,3.80
2023-04-09T23:26:56.207Z,3.97
2023-04-09T23:30:21.592Z,4.30
2023-04-09T23:33:45.420Z,3.77
2023-04-09T23:37:10.159Z,3.40
2023-04-09T23:40:33.906Z,3.00
2023-04-09T23:43:58.777Z,3.50
2023-04-09T23:47:22.494Z,3.20
2023-04-09T23:50:47.642Z,2.90
2023-04-09T23:54:11.427Z,2.90
2023-04-09T23:57:35.249Z,5.40
